createdAt,value
2019-05-13T00:00:50.164Z,103507.55
2019-05-13T00:03:20.070Z,103502.70
2019-05-13T00:05:49.918Z,103505.92
2019-05-13T00:08:21.731Z,103501.91
2019-05-13T00:10:51.260Z,103499.62
2019-05-13T00:13:21.101Z,103502.40
2019-05-13T00:15:50.866Z,103506.49
2019-05-13T00:18:20.571Z,103508.28
2019-05-13T00:20:50.312Z,103504.66
2019-05-13T00:23:20.214Z,103504.21
2019-05-13T00:25:50.101Z,103501.02
2019-05-13T00:28:19.999Z,103507.73
2019-05-13T00:30:50.043Z,103504.16
2019-05-13T00:33:19.803Z,103503.27
2019-05-13T00:35:49.638Z,103506.00
2019-05-13T00:38:19.547Z,103501.05
2019-05-13T00:40:49.530Z,103508.23
2019-05-13T00:43:19.474Z,103513.16
2019-05-13T00:45:49.476Z,103514.97
2019-05-13T00:48:19.273Z,103515.47
2019-05-13T00:50:49.084Z,103507.84
2019-05-13T00:53:18.996Z,103504.68
2019-05-13T00:55:48.831Z,103511.42
2019-05-13T00:58:18.615Z,103503.39
2019-05-13T01:00:48.484Z,103507.91
2019-05-13T01:03:18.421Z,103505.64
2019-05-13T01:05:48.291Z,103502.06
2019-05-13T01:08:18.175Z,103503.91
2019-05-13T01:10:48.028Z,103503.46
2019-05-13T01:13:17.773Z,103505.72
2019-05-13T01:15:47.612Z,103505.77
2019-05-13T01:18:17.373Z,103504.03
2019-05-13T01:20:47.295Z,103510.32
2019-05-13T01:23:17.098Z,103500.02
2019-05-13T01:25:46.832Z,103500.50
2019-05-13T01:28:16.603Z,103500.05
2019-05-13T01:30:46.436Z,103504.13
2019-05-13T01:33:16.242Z,103507.77
2019-05-13T01:35:46.047Z,103510.00
2019-05-13T01:38:15.856Z,103514.03
2019-05-13T01:40:45.768Z,103513.17
2019-05-13T01:43:15.652Z,103512.27
2019-05-13T01:45:45.464Z,103512.77
2019-05-13T01:48:15.228Z,103512.20
2019-05-13T01:50:45.004Z,103518.94
2019-05-13T01:53:14.887Z,103518.45
2019-05-13T01:55:44.633Z,103527.39
2019-05-13T01:58:14.776Z,103527.76
2019-05-13T02:00:44.862Z,103527.34
2019-05-13T02:03:14.809Z,103530.95
2019-05-13T02:05:44.616Z,103531.87
2019-05-13T02:08:14.642Z,103529.06
2019-05-13T02:10:55.056Z,103533.62
2019-05-13T02:13:26.353Z,103537.66
2019-05-13T02:15:56.874Z,103544.87
2019-05-13T02:18:26.805Z,103546.31
2019-05-13T02:20:56.767Z,103544.53
2019-05-13T02:23:26.594Z,103551.66
2019-05-13T02:25:56.417Z,103550.75
2019-05-13T02:28:26.209Z,103544.05
2019-05-13T02:30:57.022Z,103550.31
2019-05-13T02:33:27.065Z,103546.69
2019-05-13T02:35:56.917Z,103557.02
2019-05-13T02:38:30.721Z,103547.55
2019-05-13T02:40:58.090Z,103551.17
2019-05-13T02:43:27.911Z,103549.86
2019-05-13T02:45:57.831Z,103555.30
2019-05-13T02:48:27.600Z,103553.93
2019-05-13T02:50:57.455Z,103557.11
2019-05-13T02:53:27.175Z,103561.15
2019-05-13T02:55:57.017Z,103567.88
2019-05-13T02:58:26.845Z,103558.93
2019-05-13T03:00:56.649Z,103563.02
2019-05-13T03:03:26.487Z,103561.27
2019-05-13T03:05:56.271Z,103560.80
2019-05-13T03:08:39.375Z,103555.44
2019-05-13T03:10:57.557Z,103558.09
2019-05-13T03:13:32.566Z,103556.77
2019-05-13T03:16:09.041Z,103572.47
2019-05-13T03:18:38.939Z,103561.26
2019-05-13T03:21:12.405Z,103572.47
2019-05-13T03:23:43.656Z,103577.40
2019-05-13T03:26:13.003Z,103580.55
2019-05-13T03:28:43.954Z,103574.69
2019-05-13T03:31:16.930Z,103569.75
2019-05-13T03:33:47.370Z,103576.91
2019-05-13T03:36:17.896Z,103578.28
2019-05-13T03:39:01.553Z,103576.94
2019-05-13T03:41:22.849Z,103577.30
2019-05-13T03:43:56.003Z,103571.88
2019-05-13T03:46:26.886Z,103571.84
2019-05-13T03:49:02.118Z,103573.66
2019-05-13T03:51:32.700Z,103581.19
2019-05-13T03:54:03.258Z,103574.91
2019-05-13T03:56:33.817Z,103582.02
2019-05-13T03:59:03.719Z,103587.40
2019-05-13T04:01:33.717Z,103587.88
2019-05-13T04:04:03.657Z,103592.86
2019-05-13T04:06:33.601Z,103600.95
2019-05-13T04:09:21.059Z,103601.88
2019-05-13T04:11:37.515Z,103600.06
2019-05-13T04:14:07.485Z,103591.95
2019-05-13T04:16:37.489Z,103594.17
2019-05-13T04:19:07.586Z,103597.27
2019-05-13T04:21:37.757Z,103592.72
2019-05-13T04:24:07.645Z,103593.55
2019-05-13T04:26:37.452Z,103589.57
2019-05-13T04:29:07.360Z,103593.91
2019-05-13T04:31:37.306Z,103597.72
2019-05-13T04:34:07.169Z,103588.78
2019-05-13T04:36:37.053Z,103589.52
2019-05-13T04:39:07.473Z,103593.80
2019-05-13T04:41:37.418Z,103592.23
2019-05-13T04:44:07.373Z,103605.87
2019-05-13T04:46:37.269Z,103601.88
2019-05-13T04:49:07.185Z,103607.62
2019-05-13T04:51:37.160Z,103606.20
2019-05-13T04:54:06.996Z,103604.89
2019-05-13T04:56:36.884Z,103607.38
2019-05-13T04:59:06.731Z,103605.06
2019-05-13T05:02:13.001Z,103605.63
2019-05-13T05:05:22.251Z,103610.42
2019-05-13T05:08:22.490Z,103615.78
2019-05-13T05:11:31.891Z,103620.17
2019-05-13T05:14:32.478Z,103621.04
2019-05-13T05:17:25.341Z,103604.23
2019-05-13T05:20:04.193Z,103606.84
2019-05-13T05:22:52.140Z,103608.53
2019-05-13T05:25:32.302Z,103612.58
2019-05-13T05:28:11.204Z,103618.91
2019-05-13T05:31:02.345Z,103621.36
2019-05-13T05:33:57.849Z,103621.90
2019-05-13T05:36:52.671Z,103625.46
2019-05-13T05:39:27.288Z,103619.01
2019-05-13T05:41:58.714Z,103621.74
2019-05-13T05:44:32.484Z,103617.13
2019-05-13T05:47:03.524Z,103620.51
2019-05-13T05:49:33.545Z,103626.17
2019-05-13T05:52:06.184Z,103624.39
2019-05-13T05:54:38.604Z,103623.75
2019-05-13T05:57:11.898Z,103624.57
2019-05-13T05:59:42.635Z,103620.44
2019-05-13T06:02:12.985Z,103627.77
2019-05-13T06:04:44.244Z,103626.09
2019-05-13T06:07:14.262Z,103632.31
2019-05-13T06:09:44.142Z,103633.73
2019-05-13T06:12:14.143Z,103626.11
2019-05-13T06:14:44.515Z,103630.67
2019-05-13T06:17:14.413Z,103635.19
2019-05-13T06:19:44.486Z,103632.60
2019-05-13T06:22:14.555Z,103625.17
2019-05-13T06:24:44.342Z,103638.95
2019-05-13T06:27:18.391Z,103641.14
2019-05-13T06:29:52.854Z,103643.92
2019-05-13T06:32:26.602Z,103651.80
2019-05-13T06:34:56.718Z,103651.05
2019-05-13T06:37:26.760Z,103642.31
2019-05-13T06:39:56.926Z,103643.29
2019-05-13T06:42:26.842Z,103643.45
2019-05-13T06:44:56.617Z,103650.55
2019-05-13T06:47:26.466Z,103647.97
2019-05-13T06:49:56.345Z,103654.09
2019-05-13T06:52:26.396Z,103642.44
2019-05-13T06:54:56.140Z,103638.69
2019-05-13T06:57:25.901Z,103643.63
2019-05-13T06:59:55.713Z,103647.48
2019-05-13T07:02:25.465Z,103639.11
2019-05-13T07:04:55.323Z,103647.83
2019-05-13T07:07:25.064Z,103647.31
2019-05-13T07:09:54.831Z,103655.83
2019-05-13T07:12:24.716Z,103650.84
2019-05-13T07:14:54.610Z,103646.16
2019-05-13T07:17:24.334Z,103660.84
2019-05-13T07:19:54.223Z,103658.28
2019-05-13T07:22:23.970Z,103660.27
2019-05-13T07:24:53.747Z,103664.15
2019-05-13T07:27:23.492Z,103663.60
2019-05-13T07:29:55.491Z,103666.05
2019-05-13T07:32:24.770Z,103662.80
2019-05-13T07:34:54.672Z,103661.56
2019-05-13T07:37:24.460Z,103657.88
2019-05-13T07:39:54.356Z,103655.72
2019-05-13T07:42:24.073Z,103660.30
2019-05-13T07:44:53.843Z,103661.22
2019-05-13T07:47:23.608Z,103658.11
2019-05-13T07:49:53.283Z,103663.22
2019-05-13T07:52:23.002Z,103656.49
2019-05-13T07:54:52.655Z,103655.44
2019-05-13T07:57:22.431Z,103662.05
2019-05-13T07:59:52.531Z,103657.52
2019-05-13T08:02:22.262Z,103662.89
2019-05-13T08:04:53.120Z,103659.03
2019-05-13T08:07:23.946Z,103662.59
2019-05-13T08:09:56.091Z,103664.20
2019-05-13T08:12:25.012Z,103661.34
2019-05-13T08:14:54.693Z,103656.90
2019-05-13T08:17:24.728Z,103657.98
2019-05-13T08:19:54.398Z,103658.70
2019-05-13T08:22:24.243Z,103659.27
2019-05-13T08:24:54.554Z,103656.19
2019-05-13T08:27:30.307Z,103662.49
2019-05-13T08:29:55.881Z,103659.02
2019-05-13T08:32:25.564Z,103658.78
2019-05-13T08:35:01.229Z,103654.24
2019-05-13T08:37:26.682Z,103652.65
2019-05-13T08:39:58.018Z,103648.03
2019-05-13T08:42:27.772Z,103652.63
2019-05-13T08:44:57.442Z,103654.66
2019-05-13T08:47:27.345Z,103653.77
2019-05-13T08:50:00.498Z,103656.66
2019-05-13T08:52:28.479Z,103656.57
2019-05-13T08:54:58.324Z,103650.73
2019-05-13T08:57:28.115Z,103647.12
2019-05-13T08:59:57.923Z,103643.52
2019-05-13T09:02:27.683Z,103653.78
2019-05-13T09:04:57.378Z,103651.03
2019-05-13T09:07:27.131Z,103649.23
2019-05-13T09:09:56.935Z,103651.29
2019-05-13T09:12:31.953Z,103643.22
2019-05-13T09:14:58.000Z,103643.36
2019-05-13T09:17:27.670Z,103654.01
2019-05-13T09:19:57.354Z,103658.45
2019-05-13T09:22:27.126Z,103652.23
2019-05-13T09:24:56.861Z,103649.05
2019-05-13T09:27:26.573Z,103649.44
2019-05-13T09:29:56.239Z,103645.22
2019-05-13T09:32:26.029Z,103647.56
2019-05-13T09:34:55.724Z,103648.30
2019-05-13T09:37:25.432Z,103639.18
2019-05-13T09:39:55.118Z,103638.33
2019-05-13T09:42:24.782Z,103642.08
2019-05-13T09:44:54.491Z,103647.76
2019-05-13T09:47:28.221Z,103645.92
2019-05-13T09:49:55.624Z,103645.84
2019-05-13T09:52:25.365Z,103642.82
2019-05-13T09:54:55.061Z,103643.95
2019-05-13T09:57:24.724Z,103637.53
2019-05-13T09:59:54.459Z,103640.91
2019-05-13T10:02:24.142Z,103648.73
2019-05-13T10:04:53.841Z,103638.31
2019-05-13T10:07:23.560Z,103644.19
2019-05-13T10:09:53.325Z,103647.77
2019-05-13T10:12:24.405Z,103642.16
2019-05-13T10:14:54.450Z,103650.20
2019-05-13T10:17:24.132Z,103646.41
2019-05-13T10:19:53.842Z,103642.77
2019-05-13T10:22:23.730Z,103635.59
2019-05-13T10:24:53.526Z,103639.86
2019-05-13T10:27:24.589Z,103642.07
2019-05-13T10:29:54.599Z,103633.54
2019-05-13T10:32:24.292Z,103638.48
2019-05-13T10:34:54.596Z,103641.71
2019-05-13T10:37:24.482Z,103635.47
2019-05-13T10:39:54.579Z,103638.12
2019-05-13T10:42:24.452Z,103632.30
2019-05-13T10:44:54.304Z,103636.27
2019-05-13T10:47:24.023Z,103641.45
2019-05-13T10:49:53.717Z,103641.86
2019-05-13T10:52:23.432Z,103636.14
2019-05-13T10:54:53.161Z,103634.83
2019-05-13T10:57:22.805Z,103642.23
2019-05-13T10:59:52.943Z,103635.77
2019-05-13T11:02:22.707Z,103629.83
2019-05-13T11:04:52.764Z,103626.03
2019-05-13T11:07:23.532Z,103625.54
2019-05-13T11:09:53.303Z,103628.11
2019-05-13T11:12:27.996Z,103616.42
2019-05-13T11:14:55.444Z,103623.25
2019-05-13T11:17:30.908Z,103619.45
2019-05-13T11:19:56.821Z,103617.81
2019-05-13T11:22:26.500Z,103614.30
2019-05-13T11:24:56.192Z,103617.95
2019-05-13T11:27:26.017Z,103618.83
2019-05-13T11:29:55.695Z,103622.47
2019-05-13T11:32:25.454Z,103627.62
2019-05-13T11:34:55.206Z,103623.73
2019-05-13T11:37:24.911Z,103622.11
2019-05-13T11:39:54.669Z,103621.28
2019-05-13T11:42:24.355Z,103609.63
2019-05-13T11:44:54.220Z,103605.85
2019-05-13T11:47:23.887Z,103605.85
2019-05-13T11:49:53.581Z,103610.50
2019-05-13T11:52:23.254Z,103600.66
2019-05-13T11:54:53.768Z,103599.13
2019-05-13T11:57:25.295Z,103605.47
2019-05-13T11:59:55.021Z,103595.06
2019-05-13T12:02:24.689Z,103593.89
2019-05-13T12:04:54.438Z,103589.63
2019-05-13T12:07:25.252Z,103591.91
2019-05-13T12:09:54.993Z,103588.56
2019-05-13T12:12:30.528Z,103580.55
2019-05-13T12:15:22.244Z,103587.16
2019-05-13T12:17:27.857Z,103589.16
2019-05-13T12:19:57.531Z,103583.34
2019-05-13T12:22:27.245Z,103580.77
2019-05-13T12:24:57.025Z,103583.41
2019-05-13T12:27:26.687Z,103573.45
2019-05-13T12:29:56.386Z,103565.13
2019-05-13T12:32:26.097Z,103588.78
2019-05-13T12:34:55.769Z,103569.27
2019-05-13T12:37:25.455Z,103570.44
2019-05-13T12:39:55.153Z,103560.66
2019-05-13T12:42:24.823Z,103566.91
2019-05-13T12:45:09.430Z,103568.84
2019-05-13T12:47:25.919Z,103564.52
2019-05-13T12:49:55.662Z,103559.78
2019-05-13T12:52:25.426Z,103554.61
2019-05-13T12:54:55.421Z,103542.99
2019-05-13T12:57:25.147Z,103555.16
2019-05-13T12:59:54.844Z,103555.95
2019-05-13T13:02:24.597Z,103553.73
2019-05-13T13:05:10.814Z,103552.15
2019-05-13T13:07:25.842Z,103545.64
2019-05-13T13:09:55.693Z,103540.99
2019-05-13T13:12:34.138Z,103532.34
2019-05-13T13:14:56.874Z,103531.25
2019-05-13T13:17:26.597Z,103525.44
2019-05-13T13:20:04.754Z,103524.09
2019-05-13T13:22:27.792Z,103534.64
2019-05-13T13:24:57.869Z,103521.06
2019-05-13T13:27:57.845Z,103529.02
2019-05-13T13:30:04.293Z,103536.59
2019-05-13T13:32:33.100Z,103533.80
2019-05-13T13:35:03.634Z,103530.64
2019-05-13T13:37:35.214Z,103504.80
2019-05-13T13:40:06.829Z,103507.25
2019-05-13T13:42:36.538Z,103509.48
2019-05-13T13:45:07.135Z,103509.81
2019-05-13T13:47:36.871Z,103513.98
2019-05-13T13:50:07.476Z,103520.55
2019-05-13T13:52:37.198Z,103518.20
2019-05-13T13:57:38.413Z,103504.57
2019-05-13T14:00:26.589Z,103506.40
2019-05-13T14:02:43.199Z,103513.16
2019-05-13T14:05:12.701Z,103505.58
2019-05-13T14:07:09.298Z,103507.46
2019-05-13T14:07:42.770Z,103498.96
2019-05-13T14:10:12.798Z,103506.91
2019-05-13T14:12:42.571Z,103504.63
2019-05-13T14:15:13.101Z,103502.04
2019-05-13T14:17:42.793Z,103503.05
2019-05-13T14:20:13.328Z,103512.50
2019-05-13T14:22:43.030Z,103507.23
2019-05-13T14:25:13.321Z,103503.77
2019-05-13T14:27:43.128Z,103495.61
2019-05-13T14:30:13.055Z,103492.11
2019-05-13T14:32:42.783Z,103497.82
2019-05-13T14:35:13.120Z,103488.63
2019-05-13T14:37:42.841Z,103499.36
2019-05-13T14:40:14.543Z,103493.80
2019-05-13T14:42:46.137Z,103491.13
2019-05-13T14:45:21.355Z,103482.67
2019-05-13T14:47:55.660Z,103474.09
2019-05-13T14:50:25.479Z,103479.08
2019-05-13T14:52:55.335Z,103481.37
2019-05-13T14:55:25.306Z,103478.02
2019-05-13T14:57:55.124Z,103470.91
2019-05-13T15:00:25.427Z,103472.42
2019-05-13T15:02:55.230Z,103472.02
2019-05-13T15:05:25.077Z,103474.81
2019-05-13T15:08:01.323Z,103473.69
2019-05-13T15:10:31.574Z,103478.55
2019-05-13T15:13:02.989Z,103482.54
2019-05-13T15:15:33.125Z,103480.80
2019-05-13T15:18:02.932Z,103479.77
2019-05-13T15:20:33.271Z,103468.38
2019-05-13T15:23:03.021Z,103469.47
2019-05-13T15:25:33.030Z,103466.78
2019-05-13T15:28:03.024Z,103464.52
2019-05-13T15:30:33.073Z,103474.58
2019-05-13T15:33:02.808Z,103472.70
2019-05-13T15:35:32.637Z,103466.92
2019-05-13T15:38:02.419Z,103468.30
2019-05-13T15:40:32.505Z,103468.73
2019-05-13T15:43:03.478Z,103483.05
2019-05-13T15:45:33.272Z,103471.29
2019-05-13T15:48:03.018Z,103476.27
2019-05-13T15:50:32.835Z,103469.70
2019-05-13T15:53:03.014Z,103457.82
2019-05-13T15:55:32.869Z,103454.18
2019-05-13T15:58:02.719Z,103459.76
2019-05-13T16:00:32.603Z,103454.16
2019-05-13T16:03:02.530Z,103450.63
2019-05-13T16:05:32.300Z,103451.47
2019-05-13T16:08:13.375Z,103451.27
2019-05-13T16:10:43.225Z,103455.52
2019-05-13T16:13:12.969Z,103454.17
2019-05-13T16:15:42.795Z,103455.31
2019-05-13T16:18:12.632Z,103453.55
2019-05-13T16:20:45.065Z,103461.76
2019-05-13T16:23:13.897Z,103456.42
2019-05-13T16:25:43.720Z,103455.50
2019-05-13T16:28:13.569Z,103448.58
2019-05-13T16:30:43.455Z,103445.52
2019-05-13T16:33:13.488Z,103456.78
2019-05-13T16:35:43.347Z,103450.22
2019-05-13T16:38:13.116Z,103455.98
2019-05-13T16:40:43.757Z,103450.92
2019-05-13T16:43:13.546Z,103446.66
2019-05-13T16:45:43.442Z,103452.94
2019-05-13T16:48:13.344Z,103449.63
2019-05-13T16:50:43.066Z,103458.72
2019-05-13T16:53:12.916Z,103458.52
2019-05-13T16:55:42.986Z,103455.47
2019-05-13T16:58:12.802Z,103462.69
2019-05-13T17:00:42.722Z,103454.08
2019-05-13T17:03:12.483Z,103458.70
2019-05-13T17:05:44.008Z,103446.27
2019-05-13T17:08:13.727Z,103450.06
2019-05-13T17:10:43.571Z,103462.22
2019-05-13T17:13:13.431Z,103465.89
2019-05-13T17:15:43.376Z,103460.23
2019-05-13T17:18:15.389Z,103467.91
2019-05-13T17:20:44.743Z,103464.20
2019-05-13T17:23:15.804Z,103460.26
2019-05-13T17:25:45.732Z,103456.91
2019-05-13T17:28:15.621Z,103461.83
2019-05-13T17:30:45.501Z,103456.05
2019-05-13T17:33:15.331Z,103466.45
2019-05-13T17:35:45.155Z,103463.37
2019-05-13T17:38:15.061Z,103467.34
2019-05-13T17:40:49.567Z,103469.53
2019-05-13T17:43:16.531Z,103470.36
2019-05-13T17:45:46.235Z,103463.25
2019-05-13T17:48:28.428Z,103464.00
2019-05-13T17:50:47.839Z,103461.70
2019-05-13T17:53:17.705Z,103467.41
2019-05-13T17:55:47.488Z,103463.73
2019-05-13T17:58:17.387Z,103467.37
2019-05-13T18:00:47.176Z,103470.51
2019-05-13T18:03:16.859Z,103470.67
2019-05-13T18:05:46.700Z,103479.68
2019-05-13T18:08:16.605Z,103475.59
2019-05-13T18:10:46.526Z,103481.78
2019-05-13T18:13:16.432Z,103481.16
2019-05-13T18:15:47.865Z,103480.91
2019-05-13T18:18:17.693Z,103474.92
2019-05-13T18:20:47.396Z,103476.48
2019-05-13T18:23:17.067Z,103474.45
2019-05-13T18:25:46.841Z,103475.13
2019-05-13T18:28:27.724Z,103474.84
2019-05-13T18:30:48.172Z,103474.55
2019-05-13T18:33:17.829Z,103474.44
2019-05-13T18:35:47.585Z,103473.44
2019-05-13T18:38:17.267Z,103483.58
2019-05-13T18:40:47.099Z,103484.87
2019-05-13T18:43:16.864Z,103490.47
2019-05-13T18:45:46.622Z,103497.72
2019-05-13T18:48:16.307Z,103493.85
2019-05-13T18:50:45.993Z,103501.44
2019-05-13T18:53:15.722Z,103499.98
2019-05-13T18:55:45.652Z,103502.20
2019-05-13T18:58:15.310Z,103496.63
2019-05-13T19:00:45.012Z,103503.44
2019-05-13T19:03:14.819Z,103510.45
2019-05-13T19:05:48.525Z,103513.53
2019-05-13T19:08:18.257Z,103514.24
2019-05-13T19:10:52.054Z,103514.98
2019-05-13T19:13:21.805Z,103523.33
2019-05-13T19:15:51.910Z,103521.74
2019-05-13T19:18:21.592Z,103526.42
2019-05-13T19:20:51.474Z,103529.09
2019-05-13T19:23:21.262Z,103532.68
2019-05-13T19:25:56.923Z,103536.18
2019-05-13T19:28:31.670Z,103538.75
2019-05-13T19:31:03.775Z,103546.08
2019-05-13T19:33:35.835Z,103548.00
2019-05-13T19:36:07.916Z,103551.31
2019-05-13T19:38:37.893Z,103552.84
2019-05-13T19:41:11.839Z,103553.27
2019-05-13T19:43:42.145Z,103550.72
2019-05-13T19:46:13.209Z,103554.47
2019-05-13T19:48:42.901Z,103548.19
2019-05-13T19:51:13.533Z,103553.80
2019-05-13T19:53:44.979Z,103548.11
2019-05-13T19:56:15.090Z,103545.76
2019-05-13T19:58:45.303Z,103544.13
2019-05-13T20:01:16.083Z,103545.56
2019-05-13T20:03:45.821Z,103540.45
2019-05-13T20:06:23.531Z,103544.73
2019-05-13T20:08:53.383Z,103545.31
2019-05-13T20:11:23.505Z,103545.11
2019-05-13T20:13:53.424Z,103554.19
2019-05-13T20:16:23.485Z,103553.47
2019-05-13T20:18:53.327Z,103557.27
2019-05-13T20:21:23.324Z,103558.69
2019-05-13T20:23:53.198Z,103551.91
2019-05-13T20:26:22.891Z,103561.95
2019-05-13T20:28:58.017Z,103560.75
2019-05-13T20:31:27.684Z,103566.17
2019-05-13T20:33:57.357Z,103563.09
2019-05-13T20:36:27.056Z,103563.66
2019-05-13T20:38:58.695Z,103558.73
2019-05-13T20:41:28.386Z,103566.02
2019-05-13T20:43:58.105Z,103558.39
2019-05-13T20:46:27.763Z,103552.72
2019-05-13T20:48:58.062Z,103555.56
2019-05-13T20:51:27.821Z,103553.36
2019-05-13T20:53:57.520Z,103558.39
2019-05-13T20:56:27.257Z,103556.06
2019-05-13T20:58:56.933Z,103563.95
2019-05-13T21:01:26.590Z,103572.98
2019-05-13T21:03:56.419Z,103570.84
2019-05-13T21:06:44.640Z,103561.30
2019-05-13T21:09:17.015Z,103566.59
2019-05-13T21:11:45.824Z,103570.16
2019-05-13T21:14:15.585Z,103578.52
2019-05-13T21:16:45.242Z,103570.45
2019-05-13T21:19:14.930Z,103571.33
2019-05-13T21:21:44.601Z,103577.29
2019-05-13T21:24:14.684Z,103576.38
2019-05-13T21:26:44.461Z,103571.50
2019-05-13T21:29:14.129Z,103583.59
2019-05-13T21:31:43.852Z,103580.83
2019-05-13T21:34:13.557Z,103582.67
2019-05-13T21:36:43.680Z,103584.08
2019-05-13T21:39:13.394Z,103583.06
2019-05-13T21:41:43.067Z,103576.02
2019-05-13T21:44:13.000Z,103574.44
2019-05-13T21:46:42.684Z,103570.05
2019-05-13T21:49:12.408Z,103569.09
2019-05-13T21:51:42.069Z,103573.09
2019-05-13T21:54:12.015Z,103569.94
2019-05-13T21:56:42.652Z,103574.88
2019-05-13T21:59:12.583Z,103567.29
2019-05-13T22:01:42.499Z,103563.88
2019-05-13T22:04:13.074Z,103572.57
2019-05-13T22:06:42.768Z,103573.20
2019-05-13T22:09:13.214Z,103577.25
2019-05-13T22:11:42.874Z,103577.30
2019-05-13T22:14:12.632Z,103582.66
2019-05-13T22:16:42.551Z,103583.53
2019-05-13T22:19:12.470Z,103580.62
2019-05-13T22:21:42.518Z,103576.44
2019-05-13T22:24:12.330Z,103566.84
2019-05-13T22:26:42.242Z,103566.00
2019-05-13T22:29:12.101Z,103570.52
2019-05-13T22:31:42.399Z,103564.69
2019-05-13T22:34:12.317Z,103564.55
2019-05-13T22:36:41.967Z,103564.62
2019-05-13T22:39:11.693Z,103566.00
2019-05-13T22:41:42.148Z,103560.27
2019-05-13T22:44:12.130Z,103563.41
2019-05-13T22:46:41.832Z,103570.15
2019-05-13T22:49:11.797Z,103571.46
2019-05-13T22:51:41.675Z,103572.47
2019-05-13T22:54:12.005Z,103583.30
2019-05-13T22:56:41.752Z,103576.17
2019-05-13T22:59:12.228Z,103577.20
2019-05-13T23:01:42.211Z,103574.09
2019-05-13T23:04:11.907Z,103576.27
2019-05-13T23:06:41.618Z,103570.42
2019-05-13T23:09:12.492Z,103574.12
2019-05-13T23:11:42.371Z,103575.46
2019-05-13T23:14:13.447Z,103571.30
2019-05-13T23:16:43.470Z,103576.27
2019-05-13T23:19:13.244Z,103583.50
2019-05-13T23:21:42.913Z,103576.94
2019-05-13T23:24:12.589Z,103578.77
2019-05-13T23:26:42.459Z,103578.35
2019-05-13T23:29:12.143Z,103577.95
2019-05-13T23:31:41.802Z,103571.16
2019-05-13T23:34:12.139Z,103582.77
2019-05-13T23:36:42.301Z,103580.94
2019-05-13T23:39:12.279Z,103580.00
2019-05-13T23:41:42.015Z,103581.33
2019-05-13T23:44:24.091Z,103580.14
2019-05-13T23:49:32.231Z,103573.78
2019-05-13T23:52:02.569Z,103577.09
2019-05-13T23:54:32.413Z,103580.30
2019-05-13T23:57:02.216Z,103580.68
2019-05-13T23:59:31.979Z,103582.96
